sensor_id;sensor_type;location;lat;lon;timestamp;temperature;humidity
18229;DHT22;9239;50.932;3.142;2022-11-23T00:00:48;9.00;99.90
18229;DHT22;9239;50.932;3.142;2022-11-23T00:03:16;9.10;99.90
18229;DHT22;9239;50.932;3.142;2022-11-23T00:05:46;9.00;99.90
18229;DHT22;9239;50.932;3.142;2022-11-23T00:08:14;8.90;99.90
18229;DHT22;9239;50.932;3.142;2022-11-23T00:10:41;8.90;99.90
18229;DHT22;9239;50.932;3.142;2022-11-23T00:13:09;8.80;99.90
18229;DHT22;9239;50.932;3.142;2022-11-23T00:15:36;8.80;99.90
18229;DHT22;9239;50.932;3.142;2022-11-23T00:18:06;8.70;99.90
18229;DHT22;9239;50.932;3.142;2022-11-23T00:20:39;8.70;99.90
18229;DHT22;9239;50.932;3.142;2022-11-23T00:23:08;8.60;99.90
18229;DHT22;9239;50.932;3.142;2022-11-23T00:25:37;8.60;99.90
18229;DHT22;9239;50.932;3.142;2022-11-23T00:28:04;8.60;99.90
18229;DHT22;9239;50.932;3.142;2022-11-23T00:30:35;8.70;99.90
18229;DHT22;9239;50.932;3.142;2022-11-23T00:33:08;8.70;99.90
18229;DHT22;9239;50.932;3.142;2022-11-23T00:35:36;8.80;99.90
18229;DHT22;9239;50.932;3.142;2022-11-23T00:38:03;8.70;99.90
18229;DHT22;9239;50.932;3.142;2022-11-23T00:40:32;8.70;99.90
18229;DHT22;9239;50.932;3.142;2022-11-23T00:42:59;8.70;99.90
18229;DHT22;9239;50.932;3.142;2022-11-23T00:45:28;8.80;99.90
18229;DHT22;9239;50.932;3.142;2022-11-23T00:47:55;8.80;99.90
18229;DHT22;9239;50.932;3.142;2022-11-23T00:50:22;8.80;99.90
18229;DHT22;9239;50.932;3.142;2022-11-23T00:52:49;8.80;99.90
18229;DHT22;9239;50.932;3.142;2022-11-23T00:55:16;8.80;99.90
18229;DHT22;9239;50.932;3.142;2022-11-23T00:57:45;8.80;99.90
18229;DHT22;9239;50.932;3.142;2022-11-23T01:00:14;8.80;99.90
18229;DHT22;9239;50.932;3.142;2022-11-23T01:02:41;8.80;99.90
18229;DHT22;9239;50.932;3.142;2022-11-23T01:05:08;8.80;99.90
18229;DHT22;9239;50.932;3.142;2022-11-23T01:07:35;8.80;99.90
18229;DHT22;9239;50.932;3.142;2022-11-23T01:10:04;8.80;99.90
18229;DHT22;9239;50.932;3.142;2022-11-23T01:12:33;8.90;99.90
18229;DHT22;9239;50.932;3.142;2022-11-23T01:15:02;8.90;99.90
18229;DHT22;9239;50.932;3.142;2022-11-23T01:17:29;8.80;99.90
18229;DHT22;9239;50.932;3.142;2022-11-23T01:19:56;8.90;99.90
18229;DHT22;9239;50.932;3.142;2022-11-23T01:22:24;8.90;99.90
18229;DHT22;9239;50.932;3.142;2022-11-23T01:24:53;8.80;99.90
18229;DHT22;9239;50.932;3.142;2022-11-23T01:27:22;8.70;99.90
18229;DHT22;9239;50.932;3.142;2022-11-23T01:29:50;8.70;99.90
18229;DHT22;9239;50.932;3.142;2022-11-23T01:32:18;8.60;99.90
18229;DHT22;9239;50.932;3.142;2022-11-23T01:34:45;8.60;99.90
18229;DHT22;9239;50.932;3.142;2022-11-23T01:37:12;8.50;99.90
18229;DHT22;9239;50.932;3.142;2022-11-23T01:39:40;8.50;99.90
18229;DHT22;9239;50.932;3.142;2022-11-23T01:42:10;8.50;99.90
18229;DHT22;9239;50.932;3.142;2022-11-23T01:44:40;8.50;99.90
18229;DHT22;9239;50.932;3.142;2022-11-23T01:47:08;8.50;99.90
18229;DHT22;9239;50.932;3.142;2022-11-23T01:49:42;8.50;99.90
18229;DHT22;9239;50.932;3.142;2022-11-23T01:52:14;8.50;99.90
18229;DHT22;9239;50.932;3.142;2022-11-23T01:54:45;8.50;99.90
18229;DHT22;9239;50.932;3.142;2022-11-23T01:57:18;8.50;99.90
18229;DHT22;9239;50.932;3.142;2022-11-23T01:59:46;8.50;99.90
18229;DHT22;9239;50.932;3.142;2022-11-23T02:02:15;8.50;99.90
18229;DHT22;9239;50.932;3.142;2022-11-23T02:04:46;8.40;99.90
18229;DHT22;9239;50.932;3.142;2022-11-23T02:07:15;8.50;99.90
18229;DHT22;9239;50.932;3.142;2022-11-23T02:09:43;8.50;99.90
18229;DHT22;9239;50.932;3.142;2022-11-23T02:12:11;8.60;99.90
18229;DHT22;9239;50.932;3.142;2022-11-23T02:14:39;8.60;99.90
18229;DHT22;9239;50.932;3.142;2022-11-23T02:17:08;8.60;99.90
18229;DHT22;9239;50.932;3.142;2022-11-23T02:19:40;8.70;99.90
18229;DHT22;9239;50.932;3.142;2022-11-23T02:22:21;8.60;99.90
18229;DHT22;9239;50.932;3.142;2022-11-23T02:24:52;8.60;99.90
18229;DHT22;9239;50.932;3.142;2022-11-23T02:27:24;8.70;99.90
18229;DHT22;9239;50.932;3.142;2022-11-23T02:29:52;8.70;99.90
18229;DHT22;9239;50.932;3.142;2022-11-23T02:32:22;8.70;99.90
18229;DHT22;9239;50.932;3.142;2022-11-23T02:34:50;8.70;99.90
18229;DHT22;9239;50.932;3.142;2022-11-23T02:37:17;8.70;99.90
18229;DHT22;9239;50.932;3.142;2022-11-23T02:39:48;8.70;99.90
18229;DHT22;9239;50.932;3.142;2022-11-23T02:42:16;8.70;99.90
18229;DHT22;9239;50.932;3.142;2022-11-23T02:44:49;8.70;99.90
18229;DHT22;9239;50.932;3.142;2022-11-23T02:47:18;8.60;99.90
18229;DHT22;9239;50.932;3.142;2022-11-23T02:49:46;8.50;99.90
18229;DHT22;9239;50.932;3.142;2022-11-23T02:52:14;8.50;99.90
18229;DHT22;9239;50.932;3.142;2022-11-23T02:54:42;8.50;99.90
18229;DHT22;9239;50.932;3.142;2022-11-23T02:57:10;8.50;99.90
18229;DHT22;9239;50.932;3.142;2022-11-23T02:59:37;8.50;99.90
18229;DHT22;9239;50.932;3.142;2022-11-23T03:02:07;8.40;99.90
18229;DHT22;9239;50.932;3.142;2022-11-23T03:04:34;8.40;99.90
18229;DHT22;9239;50.932;3.142;2022-11-23T03:07:01;8.30;99.90
18229;DHT22;9239;50.932;3.142;2022-11-23T03:09:29;8.30;99.90
18229;DHT22;9239;50.932;3.142;2022-11-23T03:11:57;8.30;99.90
18229;DHT22;9239;50.932;3.142;2022-11-23T03:14:24;8.30;99.90
18229;DHT22;9239;50.932;3.142;2022-11-23T03:16:53;8.30;99.90
18229;DHT22;9239;50.932;3.142;2022-11-23T03:19:21;8.20;99.90
18229;DHT22;9239;50.932;3.142;2022-11-23T03:21:49;8.20;99.90
18229;DHT22;9239;50.932;3.142;2022-11-23T03:24:16;8.20;99.90
18229;DHT22;9239;50.932;3.142;2022-11-23T03:26:43;8.20;99.90
18229;DHT22;9239;50.932;3.142;2022-11-23T03:29:10;8.20;99.90
18229;DHT22;9239;50.932;3.142;2022-11-23T03:31:38;8.20;99.90
18229;DHT22;9239;50.932;3.142;2022-11-23T03:34:08;8.20;99.90
18229;DHT22;9239;50.932;3.142;2022-11-23T03:36:42;8.20;99.90
18229;DHT22;9239;50.932;3.142;2022-11-23T03:39:10;8.20;99.90
18229;DHT22;9239;50.932;3.142;2022-11-23T03:41:37;8.20;99.90
18229;DHT22;9239;50.932;3.142;2022-11-23T03:44:05;8.20;99.90
18229;DHT22;9239;50.932;3.142;2022-11-23T03:46:32;8.20;99.90
18229;DHT22;9239;50.932;3.142;2022-11-23T03:48:59;8.30;99.90
18229;DHT22;9239;50.932;3.142;2022-11-23T03:51:26;8.20;99.90
18229;DHT22;9239;50.932;3.142;2022-11-23T03:53:54;8.20;99.90
18229;DHT22;9239;50.932;3.142;2022-11-23T03:56:23;8.20;99.90
18229;DHT22;9239;50.932;3.142;2022-11-23T03:58:50;8.20;99.90
18229;DHT22;9239;50.932;3.142;2022-11-23T04:01:17;8.20;99.90
18229;DHT22;9239;50.932;3.142;2022-11-23T04:03:47;8.20;99.90
18229;DHT22;9239;50.932;3.142;2022-11-23T04:06:15;8.20;99.90
18229;DHT22;9239;50.932;3.142;2022-11-23T04:08:43;8.20;99.90
18229;DHT22;9239;50.932;3.142;2022-11-23T04:11:13;8.20;99.90
18229;DHT22;9239;50.932;3.142;2022-11-23T04:13:41;8.20;99.90
18229;DHT22;9239;50.932;3.142;2022-11-23T04:16:08;8.20;99.90
18229;DHT22;9239;50.932;3.142;2022-11-23T04:18:37;8.10;99.90
18229;DHT22;9239;50.932;3.142;2022-11-23T04:21:04;8.20;99.90
18229;DHT22;9239;50.932;3.142;2022-11-23T04:23:31;8.20;99.90
18229;DHT22;9239;50.932;3.142;2022-11-23T04:25:58;8.20;99.90
18229;DHT22;9239;50.932;3.142;2022-11-23T04:28:26;8.20;99.90
18229;DHT22;9239;50.932;3.142;2022-11-23T04:30:53;8.20;99.90
18229;DHT22;9239;50.932;3.142;2022-11-23T04:33:23;8.20;99.90
18229;DHT22;9239;50.932;3.142;2022-11-23T04:35:50;8.10;99.90
18229;DHT22;9239;50.932;3.142;2022-11-23T04:38:17;8.10;99.90
18229;DHT22;9239;50.932;3.142;2022-11-23T04:40:46;8.10;99.90
18229;DHT22;9239;50.932;3.142;2022-11-23T04:43:13;8.10;99.90
18229;DHT22;9239;50.932;3.142;2022-11-23T04:45:44;8.10;99.90
18229;DHT22;9239;50.932;3.142;2022-11-23T04:48:11;8.20;99.90
18229;DHT22;9239;50.932;3.142;2022-11-23T04:50:38;8.20;99.90
18229;DHT22;9239;50.932;3.142;2022-11-23T04:53:06;8.20;99.90
18229;DHT22;9239;50.932;3.142;2022-11-23T04:55:34;8.20;99.90
18229;DHT22;9239;50.932;3.142;2022-11-23T04:58:01;8.20;99.90
18229;DHT22;9239;50.932;3.142;2022-11-23T05:00:28;8.10;99.90
18229;DHT22;9239;50.932;3.142;2022-11-23T05:02:59;8.20;99.90
18229;DHT22;9239;50.932;3.142;2022-11-23T05:05:27;8.20;99.90
18229;DHT22;9239;50.932;3.142;2022-11-23T05:07:55;8.20;99.90
18229;DHT22;9239;50.932;3.142;2022-11-23T05:10:24;8.20;99.90
18229;DHT22;9239;50.932;3.142;2022-11-23T05:12:51;8.10;99.90
18229;DHT22;9239;50.932;3.142;2022-11-23T05:15:19;8.20;99.90
18229;DHT22;9239;50.932;3.142;2022-11-23T05:17:49;8.20;99.90
18229;DHT22;9239;50.932;3.142;2022-11-23T05:20:18;8.20;99.90
18229;DHT22;9239;50.932;3.142;2022-11-23T05:22:57;8.20;99.90
18229;DHT22;9239;50.932;3.142;2022-11-23T05:25:25;8.20;99.90
18229;DHT22;9239;50.932;3.142;2022-11-23T05:27:53;8.20;99.90
18229;DHT22;9239;50.932;3.142;2022-11-23T05:30:20;8.10;99.90
18229;DHT22;9239;50.932;3.142;2022-11-23T05:32:48;8.10;99.90
18229;DHT22;9239;50.932;3.142;2022-11-23T05:35:17;8.10;99.90
18229;DHT22;9239;50.932;3.142;2022-11-23T05:37:50;8.00;99.90
18229;DHT22;9239;50.932;3.142;2022-11-23T05:40:23;7.90;99.90
18229;DHT22;9239;50.932;3.142;2022-11-23T05:42:53;7.90;99.90
18229;DHT22;9239;50.932;3.142;2022-11-23T05:45:25;7.80;99.90
18229;DHT22;9239;50.932;3.142;2022-11-23T05:47:54;7.70;99.90
18229;DHT22;9239;50.932;3.142;2022-11-23T05:50:24;7.70;99.90
18229;DHT22;9239;50.932;3.142;2022-11-23T05:52:51;7.50;99.90
18229;DHT22;9239;50.932;3.142;2022-11-23T05:55:18;7.50;99.90
18229;DHT22;9239;50.932;3.142;2022-11-23T05:57:49;7.40;99.90
18229;DHT22;9239;50.932;3.142;2022-11-23T06:00:17;7.30;99.90
18229;DHT22;9239;50.932;3.142;2022-11-23T06:02:44;7.30;99.90
18229;DHT22;9239;50.932;3.142;2022-11-23T06:05:11;7.20;99.90
18229;DHT22;9239;50.932;3.142;2022-11-23T06:07:40;7.20;99.90
18229;DHT22;9239;50.932;3.142;2022-11-23T06:10:07;7.20;99.90
18229;DHT22;9239;50.932;3.142;2022-11-23T06:12:34;7.10;99.90
18229;DHT22;9239;50.932;3.142;2022-11-23T06:15:01;7.20;99.90
18229;DHT22;9239;50.932;3.142;2022-11-23T06:17:29;7.10;99.90
18229;DHT22;9239;50.932;3.142;2022-11-23T06:19:56;7.00;99.90
18229;DHT22;9239;50.932;3.142;2022-11-23T06:22:24;7.00;99.90
18229;DHT22;9239;50.932;3.142;2022-11-23T06:24:53;7.00;99.90
18229;DHT22;9239;50.932;3.142;2022-11-23T06:27:20;6.90;99.90
18229;DHT22;9239;50.932;3.142;2022-11-23T06:29:49;6.80;99.90
18229;DHT22;9239;50.932;3.142;2022-11-23T06:32:16;6.80;99.90
18229;DHT22;9239;50.932;3.142;2022-11-23T06:34:43;6.70;99.90
18229;DHT22;9239;50.932;3.142;2022-11-23T06:37:12;6.70;99.90
18229;DHT22;9239;50.932;3.142;2022-11-23T06:39:41;6.70;99.90
18229;DHT22;9239;50.932;3.142;2022-11-23T06:42:15;6.70;99.90
18229;DHT22;9239;50.932;3.142;2022-11-23T06:44:42;6.60;99.90
18229;DHT22;9239;50.932;3.142;2022-11-23T06:47:11;6.60;99.90
18229;DHT22;9239;50.932;3.142;2022-11-23T06:49:39;6.60;99.90
18229;DHT22;9239;50.932;3.142;2022-11-23T06:52:08;6.50;99.90
18229;DHT22;9239;50.932;3.142;2022-11-23T06:54:35;6.40;99.90
18229;DHT22;9239;50.932;3.142;2022-11-23T06:57:11;6.50;99.90
18229;DHT22;9239;50.932;3.142;2022-11-23T06:59:39;6.50;99.90
18229;DHT22;9239;50.932;3.142;2022-11-23T07:02:08;6.60;99.90
18229;DHT22;9239;50.932;3.142;2022-11-23T07:04:36;6.60;99.90
18229;DHT22;9239;50.932;3.142;2022-11-23T07:07:03;6.60;99.90
18229;DHT22;9239;50.932;3.142;2022-11-23T07:09:34;6.50;99.90
18229;DHT22;9239;50.932;3.142;2022-11-23T07:12:01;6.40;99.90
18229;DHT22;9239;50.932;3.142;2022-11-23T07:14:28;6.40;99.90
18229;DHT22;9239;50.932;3.142;2022-11-23T07:16:57;6.30;99.90
18229;DHT22;9239;50.932;3.142;2022-11-23T07:19:24;6.30;99.90
18229;DHT22;9239;50.932;3.142;2022-11-23T07:21:51;6.30;99.90
18229;DHT22;9239;50.932;3.142;2022-11-23T07:24:18;6.30;99.90
18229;DHT22;9239;50.932;3.142;2022-11-23T07:26:44;6.30;99.90
18229;DHT22;9239;50.932;3.142;2022-11-23T07:29:12;6.30;99.90
18229;DHT22;9239;50.932;3.142;2022-11-23T07:31:52;6.30;99.90
18229;DHT22;9239;50.932;3.142;2022-11-23T07:34:23;6.30;99.90
18229;DHT22;9239;50.932;3.142;2022-11-23T07:36:50;6.40;99.90
18229;DHT22;9239;50.932;3.142;2022-11-23T07:39:17;6.40;99.90
18229;DHT22;9239;50.932;3.142;2022-11-23T07:41:47;6.50;99.90
18229;DHT22;9239;50.932;3.142;2022-11-23T07:44:14;6.50;99.90
18229;DHT22;9239;50.932;3.142;2022-11-23T07:46:41;6.50;99.90
18229;DHT22;9239;50.932;3.142;2022-11-23T07:49:09;6.50;99.90
18229;DHT22;9239;50.932;3.142;2022-11-23T07:51:37;6.50;99.90
18229;DHT22;9239;50.932;3.142;2022-11-23T07:54:04;6.60;99.90
18229;DHT22;9239;50.932;3.142;2022-11-23T07:56:31;6.60;99.90
18229;DHT22;9239;50.932;3.142;2022-11-23T07:59:00;6.70;99.90
18229;DHT22;9239;50.932;3.142;2022-11-23T08:01:28;6.70;99.90
18229;DHT22;9239;50.932;3.142;2022-11-23T08:03:56;6.70;99.90
18229;DHT22;9239;50.932;3.142;2022-11-23T08:06:24;6.70;99.90
18229;DHT22;9239;50.932;3.142;2022-11-23T08:08:53;6.70;99.90
18229;DHT22;9239;50.932;3.142;2022-11-23T08:11:20;6.80;99.90
18229;DHT22;9239;50.932;3.142;2022-11-23T08:13:48;6.80;99.90
18229;DHT22;9239;50.932;3.142;2022-11-23T08:16:17;6.80;99.90
18229;DHT22;9239;50.932;3.142;2022-11-23T08:18:45;6.80;99.90
18229;DHT22;9239;50.932;3.142;2022-11-23T08:21:15;6.80;99.90
18229;DHT22;9239;50.932;3.142;2022-11-23T08:23:42;6.90;99.90
18229;DHT22;9239;50.932;3.142;2022-11-23T08:26:11;6.90;99.90
18229;DHT22;9239;50.932;3.142;2022-11-23T08:28:38;6.90;99.90
18229;DHT22;9239;50.932;3.142;2022-11-23T08:31:06;6.90;99.90
18229;DHT22;9239;50.932;3.142;2022-11-23T08:33:34;7.00;99.90
18229;DHT22;9239;50.932;3.142;2022-11-23T08:36:04;7.10;99.90
18229;DHT22;9239;50.932;3.142;2022-11-23T08:38:31;7.20;99.90
18229;DHT22;9239;50.932;3.142;2022-11-23T08:41:07;7.20;99.90
18229;DHT22;9239;50.932;3.142;2022-11-23T08:43:37;7.30;99.90
18229;DHT22;9239;50.932;3.142;2022-11-23T08:46:05;7.30;99.90
18229;DHT22;9239;50.932;3.142;2022-11-23T08:48:33;7.40;99.90
18229;DHT22;9239;50.932;3.142;2022-11-23T08:51:01;7.30;99.90
18229;DHT22;9239;50.932;3.142;2022-11-23T08:53:31;7.40;99.90
18229;DHT22;9239;50.932;3.142;2022-11-23T08:56:02;7.40;99.90
18229;DHT22;9239;50.932;3.142;2022-11-23T08:58:30;7.50;99.90
18229;DHT22;9239;50.932;3.142;2022-11-23T09:00:59;7.50;99.90
18229;DHT22;9239;50.932;3.142;2022-11-23T09:03:27;7.50;99.90
18229;DHT22;9239;50.932;3.142;2022-11-23T09:05:59;7.50;99.90
18229;DHT22;9239;50.932;3.142;2022-11-23T09:08:27;7.60;99.90
18229;DHT22;9239;50.932;3.142;2022-11-23T09:10:58;7.60;99.90
18229;DHT22;9239;50.932;3.142;2022-11-23T09:13:25;7.70;99.90
18229;DHT22;9239;50.932;3.142;2022-11-23T09:15:56;7.70;99.90
18229;DHT22;9239;50.932;3.142;2022-11-23T09:18:25;7.70;99.90
18229;DHT22;9239;50.932;3.142;2022-11-23T09:20:52;7.70;99.90
18229;DHT22;9239;50.932;3.142;2022-11-23T09:23:19;7.80;99.90
18229;DHT22;9239;50.932;3.142;2022-11-23T09:25:46;7.80;99.90
18229;DHT22;9239;50.932;3.142;2022-11-23T09:28:15;7.80;99.90
18229;DHT22;9239;50.932;3.142;2022-11-23T09:30:44;8.00;99.90
18229;DHT22;9239;50.932;3.142;2022-11-23T09:33:12;8.00;99.90
18229;DHT22;9239;50.932;3.142;2022-11-23T09:35:41;8.10;99.90
18229;DHT22;9239;50.932;3.142;2022-11-23T09:38:07;8.20;99.90
18229;DHT22;9239;50.932;3.142;2022-11-23T09:40:37;8.20;99.90
18229;DHT22;9239;50.932;3.142;2022-11-23T09:43:30;8.20;99.90
18229;DHT22;9239;50.932;3.142;2022-11-23T09:46:12;8.30;99.90
18229;DHT22;9239;50.932;3.142;2022-11-23T09:49:08;8.40;99.90
18229;DHT22;9239;50.932;3.142;2022-11-23T09:51:39;8.40;99.90
18229;DHT22;9239;50.932;3.142;2022-11-23T09:54:21;8.40;99.90
18229;DHT22;9239;50.932;3.142;2022-11-23T09:56:53;8.40;99.90
18229;DHT22;9239;50.932;3.142;2022-11-23T09:59:34;8.50;99.90
18229;DHT22;9239;50.932;3.142;2022-11-23T10:02:02;8.50;99.90
18229;DHT22;9239;50.932;3.142;2022-11-23T10:04:33;8.50;99.90
18229;DHT22;9239;50.932;3.142;2022-11-23T10:07:16;8.50;99.90
18229;DHT22;9239;50.932;3.142;2022-11-23T10:09:50;8.50;99.90
18229;DHT22;9239;50.932;3.142;2022-11-23T10:12:30;8.60;99.90
18229;DHT22;9239;50.932;3.142;2022-11-23T10:15:10;8.70;99.90
18229;DHT22;9239;50.932;3.142;2022-11-23T10:17:54;8.70;99.90
18229;DHT22;9239;50.932;3.142;2022-11-23T10:20:48;8.80;99.90
18229;DHT22;9239;50.932;3.142;2022-11-23T10:23:38;8.90;99.90
18229;DHT22;9239;50.932;3.142;2022-11-23T10:26:09;9.00;99.90
18229;DHT22;9239;50.932;3.142;2022-11-23T10:28:38;9.00;99.90
18229;DHT22;9239;50.932;3.142;2022-11-23T10:31:11;8.90;99.90
18229;DHT22;9239;50.932;3.142;2022-11-23T10:33:47;9.00;99.90
18229;DHT22;9239;50.932;3.142;2022-11-23T10:36:15;9.00;99.90
18229;DHT22;9239;50.932;3.142;2022-11-23T10:38:44;9.00;99.90
18229;DHT22;9239;50.932;3.142;2022-11-23T10:41:13;9.00;99.90
18229;DHT22;9239;50.932;3.142;2022-11-23T10:43:47;8.90;99.90
18229;DHT22;9239;50.932;3.142;2022-11-23T10:46:30;8.90;99.90
18229;DHT22;9239;50.932;3.142;2022-11-23T10:49:16;8.90;99.90
18229;DHT22;9239;50.932;3.142;2022-11-23T10:51:52;8.80;99.90
18229;DHT22;9239;50.932;3.142;2022-11-23T10:54:24;8.80;99.90
18229;DHT22;9239;50.932;3.142;2022-11-23T10:56:53;8.70;99.90
18229;DHT22;9239;50.932;3.142;2022-11-23T10:59:32;8.60;99.90
18229;DHT22;9239;50.932;3.142;2022-11-23T11:02:02;8.50;99.90
18229;DHT22;9239;50.932;3.142;2022-11-23T11:04:37;8.40;99.90
18229;DHT22;9239;50.932;3.142;2022-11-23T11:07:19;8.40;99.90
18229;DHT22;9239;50.932;3.142;2022-11-23T11:09:56;8.30;99.90
18229;DHT22;9239;50.932;3.142;2022-11-23T11:12:25;8.20;99.90
18229;DHT22;9239;50.932;3.142;2022-11-23T11:14:57;8.20;99.90
18229;DHT22;9239;50.932;3.142;2022-11-23T11:17:28;8.20;99.90
18229;DHT22;9239;50.932;3.142;2022-11-23T11:19:59;8.10;99.90
18229;DHT22;9239;50.932;3.142;2022-11-23T11:22:31;8.20;99.90
18229;DHT22;9239;50.932;3.142;2022-11-23T11:25:01;8.20;99.90
18229;DHT22;9239;50.932;3.142;2022-11-23T11:27:30;8.20;99.90
18229;DHT22;9239;50.932;3.142;2022-11-23T11:30:04;8.20;99.90
18229;DHT22;9239;50.932;3.142;2022-11-23T11:32:39;8.20;99.90
18229;DHT22;9239;50.932;3.142;2022-11-23T11:35:13;8.20;99.90
18229;DHT22;9239;50.932;3.142;2022-11-23T11:37:42;8.20;99.90
18229;DHT22;9239;50.932;3.142;2022-11-23T11:40:18;8.30;99.90
18229;DHT22;9239;50.932;3.142;2022-11-23T11:42:52;8.20;99.90
18229;DHT22;9239;50.932;3.142;2022-11-23T11:45:24;8.20;99.90
18229;DHT22;9239;50.932;3.142;2022-11-23T11:47:56;8.20;99.90
18229;DHT22;9239;50.932;3.142;2022-11-23T11:50:28;8.30;99.90
18229;DHT22;9239;50.932;3.142;2022-11-23T11:53:01;8.30;99.90
18229;DHT22;9239;50.932;3.142;2022-11-23T11:55:42;8.30;99.90
18229;DHT22;9239;50.932;3.142;2022-11-23T11:58:15;8.30;99.90
18229;DHT22;9239;50.932;3.142;2022-11-23T12:00:46;8.30;99.90
18229;DHT22;9239;50.932;3.142;2022-11-23T12:03:22;8.30;99.90
18229;DHT22;9239;50.932;3.142;2022-11-23T12:05:51;8.40;99.90
18229;DHT22;9239;50.932;3.142;2022-11-23T12:08:25;8.40;99.90
18229;DHT22;9239;50.932;3.142;2022-11-23T12:10:58;8.40;99.90
18229;DHT22;9239;50.932;3.142;2022-11-23T12:13:29;8.40;99.90
18229;DHT22;9239;50.932;3.142;2022-11-23T12:16:16;8.40;99.90
18229;DHT22;9239;50.932;3.142;2022-11-23T12:19:07;8.50;99.90
18229;DHT22;9239;50.932;3.142;2022-11-23T12:21:56;8.50;99.90
18229;DHT22;9239;50.932;3.142;2022-11-23T12:24:38;8.50;99.90
18229;DHT22;9239;50.932;3.142;2022-11-23T12:27:20;8.50;99.90
18229;DHT22;9239;50.932;3.142;2022-11-23T12:30:11;8.50;99.90
18229;DHT22;9239;50.932;3.142;2022-11-23T12:32:49;8.60;99.90
18229;DHT22;9239;50.932;3.142;2022-11-23T12:35:30;8.50;99.90
18229;DHT22;9239;50.932;3.142;2022-11-23T12:38:08;8.60;99.90
18229;DHT22;9239;50.932;3.142;2022-11-23T12:40:49;8.60;99.90
18229;DHT22;9239;50.932;3.142;2022-11-23T12:43:22;8.60;99.90
18229;DHT22;9239;50.932;3.142;2022-11-23T12:45:59;8.60;99.90
18229;DHT22;9239;50.932;3.142;2022-11-23T12:48:49;8.60;99.90
18229;DHT22;9239;50.932;3.142;2022-11-23T12:51:27;8.60;99.90
18229;DHT22;9239;50.932;3.142;2022-11-23T12:54:11;8.60;99.90
18229;DHT22;9239;50.932;3.142;2022-11-23T12:56:57;8.70;99.90
18229;DHT22;9239;50.932;3.142;2022-11-23T12:59:31;8.70;99.90
18229;DHT22;9239;50.932;3.142;2022-11-23T13:02:10;8.70;99.90
18229;DHT22;9239;50.932;3.142;2022-11-23T13:04:52;8.70;99.90
18229;DHT22;9239;50.932;3.142;2022-11-23T13:10:37;8.70;99.90
18229;DHT22;9239;50.932;3.142;2022-11-23T13:13:19;8.80;99.90
18229;DHT22;9239;50.932;3.142;2022-11-23T13:16:11;8.80;99.90
18229;DHT22;9239;50.932;3.142;2022-11-23T13:18:49;8.80;99.90
18229;DHT22;9239;50.932;3.142;2022-11-23T13:21:24;8.80;99.90
18229;DHT22;9239;50.932;3.142;2022-11-23T13:23:53;8.80;99.90
18229;DHT22;9239;50.932;3.142;2022-11-23T13:26:21;8.80;99.90
18229;DHT22;9239;50.932;3.142;2022-11-23T13:28:49;8.90;99.90
18229;DHT22;9239;50.932;3.142;2022-11-23T13:31:23;8.90;99.90
18229;DHT22;9239;50.932;3.142;2022-11-23T13:33:51;8.90;99.90
18229;DHT22;9239;50.932;3.142;2022-11-23T13:36:41;8.90;99.90
18229;DHT22;9239;50.932;3.142;2022-11-23T13:42:25;9.10;99.90
18229;DHT22;9239;50.932;3.142;2022-11-23T13:45:22;9.10;99.90
18229;DHT22;9239;50.932;3.142;2022-11-23T13:48:16;9.20;99.90
18229;DHT22;9239;50.932;3.142;2022-11-23T13:51:01;9.40;99.90
18229;DHT22;9239;50.932;3.142;2022-11-23T13:53:33;9.50;99.90
18229;DHT22;9239;50.932;3.142;2022-11-23T13:56:20;9.60;99.90
18229;DHT22;9239;50.932;3.142;2022-11-23T13:58:51;9.70;99.90
18229;DHT22;9239;50.932;3.142;2022-11-23T14:04:23;9.80;99.90
18229;DHT22;9239;50.932;3.142;2022-11-23T14:06:53;9.80;99.90
18229;DHT22;9239;50.932;3.142;2022-11-23T14:09:27;9.80;99.90
18229;DHT22;9239;50.932;3.142;2022-11-23T14:12:07;9.80;99.90
18229;DHT22;9239;50.932;3.142;2022-11-23T14:14:55;9.80;99.90
18229;DHT22;9239;50.932;3.142;2022-11-23T14:20:51;9.80;99.90
18229;DHT22;9239;50.932;3.142;2022-11-23T14:23:38;9.70;99.90
18229;DHT22;9239;50.932;3.142;2022-11-23T14:26:29;9.70;99.90
18229;DHT22;9239;50.932;3.142;2022-11-23T14:29:16;9.70;99.90
18229;DHT22;9239;50.932;3.142;2022-11-23T14:31:55;9.70;99.90
18229;DHT22;9239;50.932;3.142;2022-11-23T14:34:31;9.70;99.90
18229;DHT22;9239;50.932;3.142;2022-11-23T14:37:10;9.70;99.90
18229;DHT22;9239;50.932;3.142;2022-11-23T14:39:52;9.70;99.90
18229;DHT22;9239;50.932;3.142;2022-11-23T14:42:24;9.70;99.90
18229;DHT22;9239;50.932;3.142;2022-11-23T14:44:53;9.60;99.90
18229;DHT22;9239;50.932;3.142;2022-11-23T14:47:25;9.70;99.90
18229;DHT22;9239;50.932;3.142;2022-11-23T14:49:54;9.60;99.90
18229;DHT22;9239;50.932;3.142;2022-11-23T14:52:22;9.60;99.90
18229;DHT22;9239;50.932;3.142;2022-11-23T14:54:52;9.60;99.90
18229;DHT22;9239;50.932;3.142;2022-11-23T14:57:23;9.60;99.90
18229;DHT22;9239;50.932;3.142;2022-11-23T14:59:53;9.60;99.90
18229;DHT22;9239;50.932;3.142;2022-11-23T15:02:24;9.50;99.90
18229;DHT22;9239;50.932;3.142;2022-11-23T15:05:01;9.50;99.90
18229;DHT22;9239;50.932;3.142;2022-11-23T15:07:41;9.50;99.90
18229;DHT22;9239;50.932;3.142;2022-11-23T15:10:18;9.50;99.90
18229;DHT22;9239;50.932;3.142;2022-11-23T15:12:50;9.50;99.90
18229;DHT22;9239;50.932;3.142;2022-11-23T15:15:18;9.40;99.90
18229;DHT22;9239;50.932;3.142;2022-11-23T15:17:52;9.40;99.90
18229;DHT22;9239;50.932;3.142;2022-11-23T15:20:20;9.40;99.90
18229;DHT22;9239;50.932;3.142;2022-11-23T15:22:47;9.30;99.90
18229;DHT22;9239;50.932;3.142;2022-11-23T15:25:16;9.30;99.90
18229;DHT22;9239;50.932;3.142;2022-11-23T15:27:45;9.20;99.90
18229;DHT22;9239;50.932;3.142;2022-11-23T15:30:19;9.20;99.90
18229;DHT22;9239;50.932;3.142;2022-11-23T15:32:57;9.20;99.90
18229;DHT22;9239;50.932;3.142;2022-11-23T15:35:29;9.20;99.90
18229;DHT22;9239;50.932;3.142;2022-11-23T15:37:57;9.10;99.90
18229;DHT22;9239;50.932;3.142;2022-11-23T15:40:27;9.10;99.90
18229;DHT22;9239;50.932;3.142;2022-11-23T15:42:55;9.00;99.90
18229;DHT22;9239;50.932;3.142;2022-11-23T15:45:38;9.00;99.90
18229;DHT22;9239;50.932;3.142;2022-11-23T15:48:11;9.00;99.90
18229;DHT22;9239;50.932;3.142;2022-11-23T15:50:47;8.90;99.90
18229;DHT22;9239;50.932;3.142;2022-11-23T15:53:15;8.90;99.90
18229;DHT22;9239;50.932;3.142;2022-11-23T15:55:42;8.90;99.90
18229;DHT22;9239;50.932;3.142;2022-11-23T15:58:12;9.00;99.90
18229;DHT22;9239;50.932;3.142;2022-11-23T16:00:47;8.90;99.90
18229;DHT22;9239;50.932;3.142;2022-11-23T16:03:39;9.00;99.90
18229;DHT22;9239;50.932;3.142;2022-11-23T16:06:18;8.90;99.90
18229;DHT22;9239;50.932;3.142;2022-11-23T16:08:45;8.90;99.90
18229;DHT22;9239;50.932;3.142;2022-11-23T16:11:19;9.00;99.90
18229;DHT22;9239;50.932;3.142;2022-11-23T16:13:46;9.00;99.90
18229;DHT22;9239;50.932;3.142;2022-11-23T16:16:16;9.00;99.90
18229;DHT22;9239;50.932;3.142;2022-11-23T16:18:44;9.00;99.90
18229;DHT22;9239;50.932;3.142;2022-11-23T16:21:13;9.00;99.90
18229;DHT22;9239;50.932;3.142;2022-11-23T16:23:43;9.00;99.90
18229;DHT22;9239;50.932;3.142;2022-11-23T16:26:12;8.90;99.90
18229;DHT22;9239;50.932;3.142;2022-11-23T16:28:46;8.90;99.90
18229;DHT22;9239;50.932;3.142;2022-11-23T16:31:26;8.80;99.90
18229;DHT22;9239;50.932;3.142;2022-11-23T16:33:54;8.80;99.90
18229;DHT22;9239;50.932;3.142;2022-11-23T16:36:21;8.70;99.90
18229;DHT22;9239;50.932;3.142;2022-11-23T16:38:48;8.70;99.90
18229;DHT22;9239;50.932;3.142;2022-11-23T16:41:15;8.70;99.90